sensor_id;sensor_type;location;lat;lon;timestamp;P1;durP1;ratioP1;P2;durP2;ratioP2
76818;SDS011;65772;51.096;17.006;2023-03-12T00:00:51;9.40;;;4.60;;
76818;SDS011;65772;51.096;17.006;2023-03-12T00:03:21;9.90;;;4.90;;
76818;SDS011;65772;51.096;17.006;2023-03-12T00:05:52;9.90;;;4.40;;
76818;SDS011;65772;51.096;17.006;2023-03-12T00:08:22;9.10;;;4.20;;
76818;SDS011;65772;51.096;17.006;2023-03-12T00:15:20;9.50;;;4.20;;
76818;SDS011;65772;51.096;17.006;2023-03-12T00:17:51;9.40;;;4.20;;
76818;SDS011;65772;51.096;17.006;2023-03-12T00:20:21;10.10;;;4.40;;
76818;SDS011;65772;51.096;17.006;2023-03-12T00:22:53;8.80;;;4.10;;
76818;SDS011;65772;51.096;17.006;2023-03-12T00:25:23;9.70;;;4.20;;
76818;SDS011;65772;51.096;17.006;2023-03-12T00:27:54;9.00;;;4.30;;
76818;SDS011;65772;51.096;17.006;2023-03-12T00:30:24;10.30;;;5.10;;
76818;SDS011;65772;51.096;17.006;2023-03-12T00:32:56;9.30;;;4.50;;
76818;SDS011;65772;51.096;17.006;2023-03-12T00:35:26;8.50;;;4.50;;
76818;SDS011;65772;51.096;17.006;2023-03-12T00:37:57;8.80;;;4.50;;
76818;SDS011;65772;51.096;17.006;2023-03-12T00:40:28;10.20;;;4.20;;
76818;SDS011;65772;51.096;17.006;2023-03-12T00:42:58;7.50;;;4.20;;
76818;SDS011;65772;51.096;17.006;2023-03-12T00:45:28;11.20;;;4.00;;
76818;SDS011;65772;51.096;17.006;2023-03-12T00:47:59;10.10;;;4.10;;
76818;SDS011;65772;51.096;17.006;2023-03-12T00:50:29;8.70;;;3.70;;
76818;SDS011;65772;51.096;17.006;2023-03-12T00:53:00;8.00;;;4.20;;
76818;SDS011;65772;51.096;17.006;2023-03-12T00:55:30;9.00;;;3.50;;
76818;SDS011;65772;51.096;17.006;2023-03-12T00:58:01;8.20;;;3.90;;
76818;SDS011;65772;51.096;17.006;2023-03-12T01:00:32;7.80;;;3.40;;
76818;SDS011;65772;51.096;17.006;2023-03-12T01:03:03;8.20;;;3.40;;
76818;SDS011;65772;51.096;17.006;2023-03-12T01:05:33;7.00;;;3.80;;
76818;SDS011;65772;51.096;17.006;2023-03-12T01:08:04;8.80;;;3.00;;
76818;SDS011;65772;51.096;17.006;2023-03-12T01:10:36;7.40;;;3.60;;
76818;SDS011;65772;51.096;17.006;2023-03-12T01:13:10;10.00;;;3.70;;
76818;SDS011;65772;51.096;17.006;2023-03-12T01:15:40;9.10;;;3.90;;
76818;SDS011;65772;51.096;17.006;2023-03-12T01:18:11;7.10;;;3.10;;
76818;SDS011;65772;51.096;17.006;2023-03-12T01:20:41;8.00;;;3.40;;
76818;SDS011;65772;51.096;17.006;2023-03-12T01:23:12;9.50;;;3.80;;
76818;SDS011;65772;51.096;17.006;2023-03-12T01:25:43;6.90;;;3.20;;
76818;SDS011;65772;51.096;17.006;2023-03-12T01:28:15;5.10;;;2.70;;
76818;SDS011;65772;51.096;17.006;2023-03-12T01:30:46;7.60;;;3.50;;
76818;SDS011;65772;51.096;17.006;2023-03-12T01:33:16;8.60;;;3.10;;
76818;SDS011;65772;51.096;17.006;2023-03-12T01:35:49;7.60;;;2.80;;
76818;SDS011;65772;51.096;17.006;2023-03-12T01:38:20;5.60;;;2.70;;
76818;SDS011;65772;51.096;17.006;2023-03-12T01:40:50;8.70;;;3.50;;
76818;SDS011;65772;51.096;17.006;2023-03-12T01:43:28;6.00;;;2.90;;
76818;SDS011;65772;51.096;17.006;2023-03-12T01:49:11;9.50;;;3.60;;
76818;SDS011;65772;51.096;17.006;2023-03-12T01:51:45;7.40;;;2.70;;
76818;SDS011;65772;51.096;17.006;2023-03-12T01:54:18;6.00;;;2.60;;
76818;SDS011;65772;51.096;17.006;2023-03-12T01:56:52;7.40;;;2.60;;
76818;SDS011;65772;51.096;17.006;2023-03-12T01:59:30;5.40;;;2.40;;
76818;SDS011;65772;51.096;17.006;2023-03-12T02:02:05;5.40;;;2.50;;
76818;SDS011;65772;51.096;17.006;2023-03-12T02:04:36;5.00;;;2.30;;
76818;SDS011;65772;51.096;17.006;2023-03-12T02:07:10;5.00;;;2.10;;
76818;SDS011;65772;51.096;17.006;2023-03-12T02:09:42;5.70;;;2.00;;
76818;SDS011;65772;51.096;17.006;2023-03-12T02:12:16;4.80;;;2.30;;
76818;SDS011;65772;51.096;17.006;2023-03-12T02:14:46;5.10;;;2.50;;
76818;SDS011;65772;51.096;17.006;2023-03-12T02:17:18;6.70;;;2.10;;
76818;SDS011;65772;51.096;17.006;2023-03-12T02:19:50;4.40;;;1.90;;
76818;SDS011;65772;51.096;17.006;2023-03-12T02:22:34;4.70;;;1.90;;
76818;SDS011;65772;51.096;17.006;2023-03-12T02:25:15;5.10;;;2.10;;
76818;SDS011;65772;51.096;17.006;2023-03-12T02:27:54;7.90;;;2.20;;
76818;SDS011;65772;51.096;17.006;2023-03-12T02:32:58;3.80;;;1.50;;
76818;SDS011;65772;51.096;17.006;2023-03-12T02:35:34;6.10;;;2.00;;
76818;SDS011;65772;51.096;17.006;2023-03-12T02:41:03;5.70;;;1.70;;
76818;SDS011;65772;51.096;17.006;2023-03-12T02:43:38;4.10;;;1.70;;
76818;SDS011;65772;51.096;17.006;2023-03-12T02:46:12;5.30;;;1.70;;
76818;SDS011;65772;51.096;17.006;2023-03-12T02:48:44;5.20;;;2.10;;
76818;SDS011;65772;51.096;17.006;2023-03-12T02:51:14;3.90;;;1.80;;
76818;SDS011;65772;51.096;17.006;2023-03-12T02:53:45;3.70;;;1.80;;
76818;SDS011;65772;51.096;17.006;2023-03-12T02:56:22;2.80;;;1.40;;
76818;SDS011;65772;51.096;17.006;2023-03-12T02:58:54;4.50;;;1.80;;
76818;SDS011;65772;51.096;17.006;2023-03-12T03:01:25;6.00;;;2.00;;
76818;SDS011;65772;51.096;17.006;2023-03-12T03:03:56;4.30;;;1.70;;
76818;SDS011;65772;51.096;17.006;2023-03-12T03:06:27;5.60;;;1.80;;
76818;SDS011;65772;51.096;17.006;2023-03-12T03:08:58;5.50;;;2.00;;
76818;SDS011;65772;51.096;17.006;2023-03-12T03:11:29;4.40;;;2.00;;
76818;SDS011;65772;51.096;17.006;2023-03-12T03:14:00;6.10;;;2.10;;
76818;SDS011;65772;51.096;17.006;2023-03-12T03:16:34;4.20;;;1.70;;
76818;SDS011;65772;51.096;17.006;2023-03-12T03:19:05;5.10;;;2.10;;
76818;SDS011;65772;51.096;17.006;2023-03-12T03:21:37;5.30;;;1.60;;
76818;SDS011;65772;51.096;17.006;2023-03-12T03:24:07;5.30;;;1.60;;
76818;SDS011;65772;51.096;17.006;2023-03-12T03:26:38;6.50;;;1.60;;
76818;SDS011;65772;51.096;17.006;2023-03-12T03:29:09;4.00;;;2.10;;
76818;SDS011;65772;51.096;17.006;2023-03-12T03:31:39;3.10;;;1.20;;
76818;SDS011;65772;51.096;17.006;2023-03-12T03:34:10;5.30;;;1.70;;
76818;SDS011;65772;51.096;17.006;2023-03-12T03:36:40;3.70;;;1.50;;
76818;SDS011;65772;51.096;17.006;2023-03-12T03:39:13;4.50;;;1.80;;
76818;SDS011;65772;51.096;17.006;2023-03-12T03:41:44;6.00;;;1.80;;
76818;SDS011;65772;51.096;17.006;2023-03-12T03:44:17;4.70;;;1.70;;
76818;SDS011;65772;51.096;17.006;2023-03-12T03:46:50;4.30;;;1.60;;
76818;SDS011;65772;51.096;17.006;2023-03-12T03:49:22;3.90;;;1.60;;
76818;SDS011;65772;51.096;17.006;2023-03-12T03:51:53;4.40;;;1.60;;
76818;SDS011;65772;51.096;17.006;2023-03-12T03:54:30;3.60;;;1.60;;
76818;SDS011;65772;51.096;17.006;2023-03-12T03:57:02;6.20;;;1.70;;
76818;SDS011;65772;51.096;17.006;2023-03-12T03:59:33;4.30;;;1.90;;
76818;SDS011;65772;51.096;17.006;2023-03-12T04:02:03;5.00;;;2.10;;
76818;SDS011;65772;51.096;17.006;2023-03-12T04:04:35;4.20;;;1.70;;
76818;SDS011;65772;51.096;17.006;2023-03-12T04:07:06;2.80;;;1.40;;
76818;SDS011;65772;51.096;17.006;2023-03-12T04:09:38;3.90;;;1.50;;
76818;SDS011;65772;51.096;17.006;2023-03-12T04:12:08;4.90;;;1.80;;
76818;SDS011;65772;51.096;17.006;2023-03-12T04:14:41;3.30;;;1.70;;
76818;SDS011;65772;51.096;17.006;2023-03-12T04:17:12;4.00;;;1.60;;
76818;SDS011;65772;51.096;17.006;2023-03-12T04:19:42;4.80;;;1.60;;
76818;SDS011;65772;51.096;17.006;2023-03-12T04:22:13;4.70;;;1.60;;
76818;SDS011;65772;51.096;17.006;2023-03-12T04:24:44;4.70;;;1.80;;
76818;SDS011;65772;51.096;17.006;2023-03-12T04:27:15;3.30;;;1.50;;
76818;SDS011;65772;51.096;17.006;2023-03-12T04:29:45;4.30;;;1.90;;
76818;SDS011;65772;51.096;17.006;2023-03-12T04:32:16;4.30;;;1.90;;
76818;SDS011;65772;51.096;17.006;2023-03-12T04:34:47;6.40;;;1.80;;
76818;SDS011;65772;51.096;17.006;2023-03-12T04:37:18;5.50;;;1.60;;
76818;SDS011;65772;51.096;17.006;2023-03-12T04:39:48;5.60;;;1.80;;
76818;SDS011;65772;51.096;17.006;2023-03-12T04:42:19;3.90;;;1.50;;
76818;SDS011;65772;51.096;17.006;2023-03-12T04:44:50;6.30;;;1.70;;
76818;SDS011;65772;51.096;17.006;2023-03-12T04:47:21;4.20;;;1.60;;
76818;SDS011;65772;51.096;17.006;2023-03-12T04:49:51;3.20;;;1.80;;
76818;SDS011;65772;51.096;17.006;2023-03-12T04:52:22;3.50;;;1.40;;
76818;SDS011;65772;51.096;17.006;2023-03-12T04:54:54;7.50;;;1.70;;
76818;SDS011;65772;51.096;17.006;2023-03-12T04:57:26;4.50;;;1.50;;
76818;SDS011;65772;51.096;17.006;2023-03-12T04:59:56;2.80;;;1.30;;
76818;SDS011;65772;51.096;17.006;2023-03-12T05:02:27;5.50;;;1.50;;
76818;SDS011;65772;51.096;17.006;2023-03-12T05:04:57;4.70;;;1.30;;
76818;SDS011;65772;51.096;17.006;2023-03-12T05:07:28;2.70;;;1.10;;
76818;SDS011;65772;51.096;17.006;2023-03-12T05:09:59;8.10;;;1.50;;
76818;SDS011;65772;51.096;17.006;2023-03-12T05:12:30;6.40;;;1.30;;
76818;SDS011;65772;51.096;17.006;2023-03-12T05:15:00;3.80;;;1.60;;
76818;SDS011;65772;51.096;17.006;2023-03-12T05:17:31;3.50;;;1.50;;
76818;SDS011;65772;51.096;17.006;2023-03-12T05:20:03;3.30;;;1.50;;
76818;SDS011;65772;51.096;17.006;2023-03-12T05:22:35;5.30;;;1.30;;
76818;SDS011;65772;51.096;17.006;2023-03-12T05:25:07;3.40;;;1.50;;
76818;SDS011;65772;51.096;17.006;2023-03-12T05:27:39;3.10;;;1.20;;
76818;SDS011;65772;51.096;17.006;2023-03-12T05:30:11;3.20;;;1.40;;
76818;SDS011;65772;51.096;17.006;2023-03-12T05:32:41;5.20;;;1.60;;
76818;SDS011;65772;51.096;17.006;2023-03-12T05:35:12;2.80;;;1.40;;
76818;SDS011;65772;51.096;17.006;2023-03-12T05:37:43;3.60;;;1.60;;
76818;SDS011;65772;51.096;17.006;2023-03-12T05:40:14;5.00;;;1.50;;
76818;SDS011;65772;51.096;17.006;2023-03-12T05:46:58;7.20;;;1.40;;
76818;SDS011;65772;51.096;17.006;2023-03-12T05:53:48;5.90;;;1.20;;
76818;SDS011;65772;51.096;17.006;2023-03-12T05:56:19;6.60;;;1.40;;
76818;SDS011;65772;51.096;17.006;2023-03-12T06:03:11;4.60;;;1.40;;
76818;SDS011;65772;51.096;17.006;2023-03-12T06:05:42;3.50;;;1.20;;
76818;SDS011;65772;51.096;17.006;2023-03-12T06:08:14;4.20;;;1.10;;
76818;SDS011;65772;51.096;17.006;2023-03-12T06:10:45;2.70;;;1.20;;
76818;SDS011;65772;51.096;17.006;2023-03-12T06:15:47;3.20;;;1.10;;
76818;SDS011;65772;51.096;17.006;2023-03-12T06:18:17;3.30;;;1.30;;
76818;SDS011;65772;51.096;17.006;2023-03-12T06:20:48;4.90;;;1.60;;
76818;SDS011;65772;51.096;17.006;2023-03-12T06:23:18;3.90;;;1.40;;
76818;SDS011;65772;51.096;17.006;2023-03-12T06:25:49;6.00;;;1.40;;
76818;SDS011;65772;51.096;17.006;2023-03-12T06:28:19;3.00;;;1.30;;
76818;SDS011;65772;51.096;17.006;2023-03-12T06:30:50;5.70;;;1.40;;
76818;SDS011;65772;51.096;17.006;2023-03-12T06:33:22;4.50;;;1.20;;
76818;SDS011;65772;51.096;17.006;2023-03-12T06:35:53;2.70;;;1.50;;
76818;SDS011;65772;51.096;17.006;2023-03-12T06:38:25;3.10;;;1.00;;
76818;SDS011;65772;51.096;17.006;2023-03-12T06:40:56;3.20;;;1.30;;
76818;SDS011;65772;51.096;17.006;2023-03-12T06:43:29;4.10;;;1.50;;
76818;SDS011;65772;51.096;17.006;2023-03-12T06:46:02;4.40;;;1.70;;
76818;SDS011;65772;51.096;17.006;2023-03-12T06:48:34;3.70;;;1.30;;
76818;SDS011;65772;51.096;17.006;2023-03-12T06:51:08;3.20;;;1.30;;
76818;SDS011;65772;51.096;17.006;2023-03-12T06:53:40;6.70;;;1.40;;
76818;SDS011;65772;51.096;17.006;2023-03-12T07:00:31;4.10;;;1.30;;
76818;SDS011;65772;51.096;17.006;2023-03-12T07:03:02;5.60;;;2.00;;
76818;SDS011;65772;51.096;17.006;2023-03-12T07:05:32;3.30;;;1.20;;
76818;SDS011;65772;51.096;17.006;2023-03-12T07:08:03;4.00;;;1.30;;
76818;SDS011;65772;51.096;17.006;2023-03-12T07:10:34;2.40;;;1.30;;
76818;SDS011;65772;51.096;17.006;2023-03-12T07:13:04;5.00;;;1.50;;
76818;SDS011;65772;51.096;17.006;2023-03-12T07:15:35;2.80;;;1.40;;
76818;SDS011;65772;51.096;17.006;2023-03-12T07:18:06;4.30;;;1.40;;
76818;SDS011;65772;51.096;17.006;2023-03-12T07:20:39;3.90;;;1.20;;
76818;SDS011;65772;51.096;17.006;2023-03-12T07:23:10;4.10;;;1.20;;
76818;SDS011;65772;51.096;17.006;2023-03-12T07:25:41;3.50;;;1.30;;
76818;SDS011;65772;51.096;17.006;2023-03-12T07:28:13;4.00;;;1.20;;
76818;SDS011;65772;51.096;17.006;2023-03-12T07:30:44;3.80;;;1.30;;
76818;SDS011;65772;51.096;17.006;2023-03-12T07:35:47;4.00;;;1.30;;
76818;SDS011;65772;51.096;17.006;2023-03-12T07:38:18;3.10;;;1.20;;
76818;SDS011;65772;51.096;17.006;2023-03-12T07:40:50;3.10;;;1.30;;
76818;SDS011;65772;51.096;17.006;2023-03-12T07:43:21;6.40;;;1.50;;
76818;SDS011;65772;51.096;17.006;2023-03-12T07:45:54;4.10;;;1.50;;
76818;SDS011;65772;51.096;17.006;2023-03-12T07:48:24;6.30;;;1.50;;
76818;SDS011;65772;51.096;17.006;2023-03-12T07:50:55;3.50;;;1.30;;
76818;SDS011;65772;51.096;17.006;2023-03-12T07:53:26;4.30;;;1.50;;
76818;SDS011;65772;51.096;17.006;2023-03-12T07:55:57;3.30;;;1.30;;
76818;SDS011;65772;51.096;17.006;2023-03-12T07:58:27;5.30;;;1.40;;
76818;SDS011;65772;51.096;17.006;2023-03-12T08:00:58;3.70;;;1.50;;
76818;SDS011;65772;51.096;17.006;2023-03-12T08:03:28;3.10;;;1.30;;
76818;SDS011;65772;51.096;17.006;2023-03-12T08:06:00;4.90;;;1.50;;
76818;SDS011;65772;51.096;17.006;2023-03-12T08:08:32;4.30;;;1.50;;
76818;SDS011;65772;51.096;17.006;2023-03-12T08:11:05;4.40;;;1.60;;
76818;SDS011;65772;51.096;17.006;2023-03-12T08:13:35;4.00;;;1.30;;
76818;SDS011;65772;51.096;17.006;2023-03-12T08:16:06;3.10;;;1.60;;
76818;SDS011;65772;51.096;17.006;2023-03-12T08:18:37;5.50;;;2.00;;
76818;SDS011;65772;51.096;17.006;2023-03-12T08:21:09;6.40;;;1.70;;
76818;SDS011;65772;51.096;17.006;2023-03-12T08:23:43;6.60;;;1.80;;
76818;SDS011;65772;51.096;17.006;2023-03-12T08:26:14;4.70;;;1.40;;
76818;SDS011;65772;51.096;17.006;2023-03-12T08:28:45;5.30;;;1.40;;
76818;SDS011;65772;51.096;17.006;2023-03-12T08:31:15;8.70;;;2.80;;
76818;SDS011;65772;51.096;17.006;2023-03-12T08:33:46;4.30;;;1.60;;
76818;SDS011;65772;51.096;17.006;2023-03-12T08:36:17;4.80;;;1.70;;
76818;SDS011;65772;51.096;17.006;2023-03-12T08:38:49;4.80;;;2.20;;
76818;SDS011;65772;51.096;17.006;2023-03-12T08:41:19;5.40;;;1.80;;
76818;SDS011;65772;51.096;17.006;2023-03-12T08:43:50;5.70;;;1.50;;
76818;SDS011;65772;51.096;17.006;2023-03-12T08:46:21;4.50;;;1.70;;
76818;SDS011;65772;51.096;17.006;2023-03-12T08:48:51;5.70;;;2.50;;
76818;SDS011;65772;51.096;17.006;2023-03-12T08:51:22;4.80;;;1.70;;
76818;SDS011;65772;51.096;17.006;2023-03-12T08:53:52;4.50;;;2.30;;
76818;SDS011;65772;51.096;17.006;2023-03-12T08:56:23;4.30;;;1.70;;
76818;SDS011;65772;51.096;17.006;2023-03-12T08:58:53;5.70;;;1.70;;
76818;SDS011;65772;51.096;17.006;2023-03-12T09:01:25;8.50;;;3.40;;
76818;SDS011;65772;51.096;17.006;2023-03-12T09:08:15;4.60;;;1.70;;
76818;SDS011;65772;51.096;17.006;2023-03-12T09:10:48;7.50;;;2.10;;
76818;SDS011;65772;51.096;17.006;2023-03-12T09:13:19;6.70;;;2.10;;
76818;SDS011;65772;51.096;17.006;2023-03-12T09:15:49;4.60;;;2.00;;
76818;SDS011;65772;51.096;17.006;2023-03-12T09:18:20;7.40;;;2.20;;
76818;SDS011;65772;51.096;17.006;2023-03-12T09:20:51;5.30;;;1.80;;
76818;SDS011;65772;51.096;17.006;2023-03-12T09:23:21;6.60;;;2.00;;
76818;SDS011;65772;51.096;17.006;2023-03-12T09:25:52;4.10;;;1.80;;
76818;SDS011;65772;51.096;17.006;2023-03-12T09:28:23;5.20;;;2.10;;
76818;SDS011;65772;51.096;17.006;2023-03-12T09:30:54;4.50;;;2.00;;
76818;SDS011;65772;51.096;17.006;2023-03-12T09:33:25;3.90;;;1.50;;
76818;SDS011;65772;51.096;17.006;2023-03-12T09:35:56;4.40;;;1.70;;
76818;SDS011;65772;51.096;17.006;2023-03-12T09:38:27;6.80;;;1.90;;
76818;SDS011;65772;51.096;17.006;2023-03-12T09:40:58;5.10;;;2.00;;
76818;SDS011;65772;51.096;17.006;2023-03-12T09:43:32;4.20;;;1.70;;
76818;SDS011;65772;51.096;17.006;2023-03-12T09:46:10;5.80;;;2.10;;
76818;SDS011;65772;51.096;17.006;2023-03-12T09:48:45;5.90;;;2.30;;
76818;SDS011;65772;51.096;17.006;2023-03-12T09:51:19;4.90;;;1.70;;
76818;SDS011;65772;51.096;17.006;2023-03-12T09:53:53;6.30;;;1.90;;
76818;SDS011;65772;51.096;17.006;2023-03-12T09:56:26;4.60;;;1.60;;
76818;SDS011;65772;51.096;17.006;2023-03-12T09:58:57;3.60;;;1.50;;
76818;SDS011;65772;51.096;17.006;2023-03-12T10:01:38;4.10;;;1.40;;
76818;SDS011;65772;51.096;17.006;2023-03-12T10:04:19;3.30;;;1.50;;
76818;SDS011;65772;51.096;17.006;2023-03-12T10:06:58;4.90;;;2.00;;
76818;SDS011;65772;51.096;17.006;2023-03-12T10:09:35;4.20;;;1.90;;
76818;SDS011;65772;51.096;17.006;2023-03-12T10:12:19;7.30;;;2.30;;
76818;SDS011;65772;51.096;17.006;2023-03-12T10:15:02;6.40;;;2.40;;
76818;SDS011;65772;51.096;17.006;2023-03-12T10:17:56;4.60;;;2.10;;
76818;SDS011;65772;51.096;17.006;2023-03-12T10:23:40;5.20;;;2.10;;
76818;SDS011;65772;51.096;17.006;2023-03-12T10:26:22;7.30;;;2.90;;
76818;SDS011;65772;51.096;17.006;2023-03-12T10:28:56;5.20;;;2.10;;
76818;SDS011;65772;51.096;17.006;2023-03-12T10:31:31;6.30;;;2.10;;
76818;SDS011;65772;51.096;17.006;2023-03-12T10:34:11;6.60;;;2.20;;
76818;SDS011;65772;51.096;17.006;2023-03-12T10:36:46;11.60;;;2.20;;
76818;SDS011;65772;51.096;17.006;2023-03-12T10:39:17;7.90;;;2.70;;
76818;SDS011;65772;51.096;17.006;2023-03-12T10:41:49;3.90;;;2.00;;
76818;SDS011;65772;51.096;17.006;2023-03-12T10:44:21;8.30;;;2.50;;
76818;SDS011;65772;51.096;17.006;2023-03-12T10:46:56;6.30;;;2.40;;
76818;SDS011;65772;51.096;17.006;2023-03-12T10:49:33;7.20;;;2.40;;
76818;SDS011;65772;51.096;17.006;2023-03-12T10:52:06;7.30;;;2.50;;
76818;SDS011;65772;51.096;17.006;2023-03-12T10:54:43;5.40;;;1.90;;
76818;SDS011;65772;51.096;17.006;2023-03-12T10:57:15;7.10;;;2.40;;
76818;SDS011;65772;51.096;17.006;2023-03-12T11:02:27;7.90;;;2.30;;
76818;SDS011;65772;51.096;17.006;2023-03-12T11:05:00;4.60;;;2.20;;
76818;SDS011;65772;51.096;17.006;2023-03-12T11:07:46;5.40;;;2.20;;
76818;SDS011;65772;51.096;17.006;2023-03-12T11:10:19;5.00;;;2.00;;
76818;SDS011;65772;51.096;17.006;2023-03-12T11:12:56;6.20;;;2.90;;
76818;SDS011;65772;51.096;17.006;2023-03-12T11:15:37;4.70;;;2.20;;
76818;SDS011;65772;51.096;17.006;2023-03-12T11:18:20;5.30;;;2.30;;
76818;SDS011;65772;51.096;17.006;2023-03-12T11:24:03;6.20;;;3.20;;
76818;SDS011;65772;51.096;17.006;2023-03-12T11:26:48;5.90;;;2.50;;
76818;SDS011;65772;51.096;17.006;2023-03-12T11:29:26;6.40;;;2.20;;
76818;SDS011;65772;51.096;17.006;2023-03-12T11:32:01;5.20;;;2.70;;
76818;SDS011;65772;51.096;17.006;2023-03-12T11:34:38;5.60;;;2.30;;
76818;SDS011;65772;51.096;17.006;2023-03-12T11:37:11;5.30;;;2.60;;
76818;SDS011;65772;51.096;17.006;2023-03-12T11:39:50;5.20;;;2.30;;
76818;SDS011;65772;51.096;17.006;2023-03-12T11:42:39;10.00;;;2.50;;
76818;SDS011;65772;51.096;17.006;2023-03-12T11:45:22;5.60;;;2.40;;
76818;SDS011;65772;51.096;17.006;2023-03-12T11:48:01;5.40;;;3.00;;
76818;SDS011;65772;51.096;17.006;2023-03-12T11:50:42;4.20;;;2.10;;
76818;SDS011;65772;51.096;17.006;2023-03-12T11:53:25;5.10;;;2.70;;
76818;SDS011;65772;51.096;17.006;2023-03-12T11:56:10;5.10;;;2.40;;
76818;SDS011;65772;51.096;17.006;2023-03-12T12:01:57;5.00;;;2.00;;
76818;SDS011;65772;51.096;17.006;2023-03-12T12:07:40;4.70;;;2.10;;
76818;SDS011;65772;51.096;17.006;2023-03-12T12:10:23;5.80;;;2.00;;
76818;SDS011;65772;51.096;17.006;2023-03-12T12:13:07;4.10;;;2.20;;
76818;SDS011;65772;51.096;17.006;2023-03-12T12:15:45;6.70;;;2.20;;
76818;SDS011;65772;51.096;17.006;2023-03-12T12:18:30;4.40;;;2.30;;
76818;SDS011;65772;51.096;17.006;2023-03-12T12:21:15;4.20;;;1.80;;
76818;SDS011;65772;51.096;17.006;2023-03-12T12:24:01;5.00;;;2.00;;
76818;SDS011;65772;51.096;17.006;2023-03-12T12:26:45;6.10;;;1.90;;
76818;SDS011;65772;51.096;17.006;2023-03-12T12:29:25;4.10;;;1.90;;
76818;SDS011;65772;51.096;17.006;2023-03-12T12:32:03;5.30;;;2.00;;
76818;SDS011;65772;51.096;17.006;2023-03-12T12:34:46;7.60;;;2.60;;
76818;SDS011;65772;51.096;17.006;2023-03-12T12:37:34;8.20;;;3.90;;
76818;SDS011;65772;51.096;17.006;2023-03-12T12:40:18;7.60;;;2.30;;
76818;SDS011;65772;51.096;17.006;2023-03-12T12:42:55;5.30;;;2.20;;
76818;SDS011;65772;51.096;17.006;2023-03-12T12:45:31;5.30;;;2.40;;
76818;SDS011;65772;51.096;17.006;2023-03-12T12:48:07;3.90;;;1.70;;
76818;SDS011;65772;51.096;17.006;2023-03-12T12:50:44;9.30;;;4.60;;
76818;SDS011;65772;51.096;17.006;2023-03-12T12:53:20;5.20;;;2.10;;
76818;SDS011;65772;51.096;17.006;2023-03-12T12:55:57;5.30;;;2.20;;
76818;SDS011;65772;51.096;17.006;2023-03-12T12:58:42;9.60;;;2.10;;
76818;SDS011;65772;51.096;17.006;2023-03-12T13:01:20;5.00;;;2.10;;
76818;SDS011;65772;51.096;17.006;2023-03-12T13:03:55;4.90;;;2.00;;
76818;SDS011;65772;51.096;17.006;2023-03-12T13:06:30;5.00;;;2.20;;
76818;SDS011;65772;51.096;17.006;2023-03-12T13:09:35;3.30;;;1.90;;
76818;SDS011;65772;51.096;17.006;2023-03-12T13:12:14;6.80;;;2.40;;
76818;SDS011;65772;51.096;17.006;2023-03-12T13:14:48;6.40;;;2.10;;
76818;SDS011;65772;51.096;17.006;2023-03-12T13:17:24;6.10;;;2.50;;
76818;SDS011;65772;51.096;17.006;2023-03-12T13:20:09;6.20;;;2.20;;
76818;SDS011;65772;51.096;17.006;2023-03-12T13:22:53;4.30;;;2.10;;
76818;SDS011;65772;51.096;17.006;2023-03-12T13:25:34;5.00;;;2.00;;
76818;SDS011;65772;51.096;17.006;2023-03-12T13:28:35;6.00;;;2.20;;
76818;SDS011;65772;51.096;17.006;2023-03-12T13:31:39;4.40;;;2.00;;
76818;SDS011;65772;51.096;17.006;2023-03-12T13:37:19;4.60;;;2.00;;
76818;SDS011;65772;51.096;17.006;2023-03-12T13:46:28;6.90;;;2.70;;
76818;SDS011;65772;51.096;17.006;2023-03-12T13:49:13;4.80;;;1.90;;
76818;SDS011;65772;51.096;17.006;2023-03-12T13:51:51;6.30;;;2.20;;
76818;SDS011;65772;51.096;17.006;2023-03-12T13:54:39;4.00;;;2.30;;
76818;SDS011;65772;51.096;17.006;2023-03-12T13:57:12;5.70;;;2.20;;
76818;SDS011;65772;51.096;17.006;2023-03-12T13:59:54;4.50;;;2.30;;
76818;SDS011;65772;51.096;17.006;2023-03-12T14:02:27;7.70;;;2.50;;
76818;SDS011;65772;51.096;17.006;2023-03-12T14:05:02;5.30;;;2.40;;
76818;SDS011;65772;51.096;17.006;2023-03-12T14:07:43;4.20;;;2.30;;
76818;SDS011;65772;51.096;17.006;2023-03-12T14:15:02;5.10;;;2.10;;
76818;SDS011;65772;51.096;17.006;2023-03-12T14:17:39;5.00;;;2.20;;
76818;SDS011;65772;51.096;17.006;2023-03-12T14:20:13;6.70;;;2.10;;
76818;SDS011;65772;51.096;17.006;2023-03-12T14:22:47;7.40;;;2.50;;
76818;SDS011;65772;51.096;17.006;2023-03-12T14:25:22;6.20;;;2.60;;
76818;SDS011;65772;51.096;17.006;2023-03-12T14:28:01;6.00;;;2.50;;
76818;SDS011;65772;51.096;17.006;2023-03-12T14:30:43;5.50;;;2.70;;
76818;SDS011;65772;51.096;17.006;2023-03-12T14:33:17;7.20;;;2.50;;
76818;SDS011;65772;51.096;17.006;2023-03-12T14:46:34;8.40;;;3.20;;
76818;SDS011;65772;51.096;17.006;2023-03-12T14:49:05;7.70;;;3.10;;
76818;SDS011;65772;51.096;17.006;2023-03-12T14:54:15;7.60;;;3.20;;
76818;SDS011;65772;51.096;17.006;2023-03-12T14:56:46;6.50;;;3.20;;
76818;SDS011;65772;51.096;17.006;2023-03-12T14:59:22;7.20;;;3.80;;
76818;SDS011;65772;51.096;17.006;2023-03-12T15:01:57;6.80;;;3.00;;
76818;SDS011;65772;51.096;17.006;2023-03-12T15:04:31;7.50;;;3.40;;
76818;SDS011;65772;51.096;17.006;2023-03-12T15:07:03;10.10;;;4.30;;
76818;SDS011;65772;51.096;17.006;2023-03-12T15:09:40;8.20;;;3.70;;
76818;SDS011;65772;51.096;17.006;2023-03-12T15:12:18;7.80;;;3.70;;
76818;SDS011;65772;51.096;17.006;2023-03-12T15:14:51;9.00;;;3.60;;
76818;SDS011;65772;51.096;17.006;2023-03-12T15:17:25;10.00;;;3.90;;
76818;SDS011;65772;51.096;17.006;2023-03-12T15:19:58;8.40;;;4.50;;
76818;SDS011;65772;51.096;17.006;2023-03-12T15:22:35;8.50;;;3.30;;
76818;SDS011;65772;51.096;17.006;2023-03-12T15:25:19;7.40;;;3.50;;
76818;SDS011;65772;51.096;17.006;2023-03-12T15:28:00;7.30;;;3.60;;
76818;SDS011;65772;51.096;17.006;2023-03-12T15:30:33;6.40;;;2.90;;
76818;SDS011;65772;51.096;17.006;2023-03-12T15:33:07;6.40;;;3.00;;
76818;SDS011;65772;51.096;17.006;2023-03-12T15:35:41;7.40;;;2.60;;
76818;SDS011;65772;51.096;17.006;2023-03-12T15:38:26;6.50;;;2.80;;
76818;SDS011;65772;51.096;17.006;2023-03-12T15:41:00;6.60;;;3.00;;
76818;SDS011;65772;51.096;17.006;2023-03-12T15:43:35;5.50;;;2.30;;
76818;SDS011;65772;51.096;17.006;2023-03-12T15:46:05;5.60;;;1.90;;
76818;SDS011;65772;51.096;17.006;2023-03-12T15:48:39;6.80;;;2.80;;
76818;SDS011;65772;51.096;17.006;2023-03-12T15:51:25;5.70;;;2.60;;
76818;SDS011;65772;51.096;17.006;2023-03-12T15:54:02;7.80;;;2.70;;
76818;SDS011;65772;51.096;17.006;2023-03-12T15:56:49;5.80;;;2.50;;
76818;SDS011;65772;51.096;17.006;2023-03-12T15:59:21;6.50;;;2.50;;
76818;SDS011;65772;51.096;17.006;2023-03-12T16:01:54;6.20;;;2.60;;
76818;SDS011;65772;51.096;17.006;2023-03-12T16:04:25;7.90;;;2.80;;
76818;SDS011;65772;51.096;17.006;2023-03-12T16:06:55;7.40;;;2.80;;
76818;SDS011;65772;51.096;17.006;2023-03-12T16:09:27;6.30;;;3.00;;
76818;SDS011;65772;51.096;17.006;2023-03-12T16:12:00;6.00;;;2.30;;
76818;SDS011;65772;51.096;17.006;2023-03-12T16:14:32;7.20;;;2.50;;
76818;SDS011;65772;51.096;17.006;2023-03-12T16:17:03;5.50;;;2.50;;
76818;SDS011;65772;51.096;17.006;2023-03-12T16:19:38;6.70;;;2.50;;
76818;SDS011;65772;51.096;17.006;2023-03-12T16:22:09;4.50;;;2.30;;
76818;SDS011;65772;51.096;17.006;2023-03-12T16:24:39;7.30;;;2.80;;
76818;SDS011;65772;51.096;17.006;2023-03-12T16:27:11;4.90;;;2.00;;
76818;SDS011;65772;51.096;17.006;2023-03-12T16:29:58;8.60;;;2.80;;
76818;SDS011;65772;51.096;17.006;2023-03-12T16:32:29;6.70;;;2.40;;
76818;SDS011;65772;51.096;17.006;2023-03-12T16:34:59;5.60;;;2.50;;